Time;durP1;ratioP1;P1;durP2;ratioP2;P2;SDS_P1;SDS_P2;PMS_P1;PMS_P2;Temp;Humidity;BMP_temperature;BMP_pressure;BME280_temperature;BME280_humidity;BME280_pressure;Samples;Min_cycle;Max_cycle;Signal;HPM_P1;HPM_P2
2022/07/13 00:01:41;;;;;;;1.35;1.25;;;18.80;99.90;;;;;;5049971;28;20471;-51
2022/07/13 00:04:07;;;;;;;1.98;1.30;;;18.80;99.90;;;;;;5050174;28;20555;-52
2022/07/13 00:06:32;;;;;;;1.73;1.30;;;18.80;99.90;;;;;;5050295;28;20100;-54
2022/07/13 00:08:58;;;;;;;1.30;1.20;;;18.80;99.90;;;;;;5049901;28;20025;-50
2022/07/13 00:11:23;;;;;;;1.60;1.38;;;18.80;99.90;;;;;;5032247;28;20025;-48
2022/07/13 00:13:49;;;;;;;1.70;1.23;;;18.80;99.90;;;;;;5047678;28;20040;-57
2022/07/13 00:16:15;;;;;;;1.30;1.20;;;18.80;99.90;;;;;;5042033;28;20407;-50
2022/07/13 00:18:40;;;;;;;1.48;1.33;;;18.80;99.90;;;;;;5049778;28;20044;-50
2022/07/13 00:21:06;;;;;;;1.50;1.40;;;18.80;99.90;;;;;;5050118;28;20025;-51
2022/07/13 00:23:31;;;;;;;1.40;1.30;;;18.70;99.90;;;;;;5049685;28;20032;-50
2022/07/13 00:25:57;;;;;;;1.80;1.58;;;18.70;99.90;;;;;;5049885;28;20162;-50
2022/07/13 00:28:22;;;;;;;1.73;1.45;;;18.80;99.90;;;;;;5050021;28;20160;-50
2022/07/13 00:30:48;;;;;;;1.45;1.17;;;18.70;99.90;;;;;;5030573;28;20021;-52
2022/07/13 00:33:14;;;;;;;2.15;1.92;;;18.70;99.90;;;;;;5047627;28;20418;-51
2022/07/13 00:35:39;;;;;;;1.80;1.60;;;18.70;99.90;;;;;;5048398;28;20585;-53
2022/07/13 00:38:05;;;;;;;1.42;1.33;;;18.70;99.90;;;;;;5049350;28;20025;-48
2022/07/13 00:40:30;;;;;;;1.50;1.40;;;18.70;99.90;;;;;;5049165;28;20460;-51
2022/07/13 00:42:57;;;;;;;2.35;1.40;;;18.70;99.90;;;;;;5049378;28;20021;-48
2022/07/13 00:45:23;;;;;;;1.45;1.33;;;18.70;99.90;;;;;;5048880;28;20355;-50
2022/07/13 00:47:49;;;;;;;1.65;1.20;;;18.70;99.90;;;;;;5049078;28;20018;-53
2022/07/13 00:50:14;;;;;;;1.40;1.30;;;18.70;99.90;;;;;;5045936;28;20075;-49
2022/07/13 00:52:41;;;;;;;1.40;1.30;;;18.70;99.90;;;;;;5049153;28;20036;-49
2022/07/13 00:55:08;;;;;;;1.40;1.30;;;18.70;99.90;;;;;;5048762;28;20108;-48
2022/07/13 00:57:35;;;;;;;1.38;1.27;;;18.70;99.90;;;;;;5048730;28;20029;-53
2022/07/13 01:00:08;;;;;;;1.88;1.00;;;18.70;99.90;;;;;;5028716;28;20124;-48
2022/07/13 01:02:45;;;;;;;1.33;1.23;;;18.70;99.90;;;;;;5046800;28;20116;-48
2022/07/13 01:05:12;;;;;;;1.40;1.30;;;18.70;99.90;;;;;;5029210;28;20438;-49
2022/07/13 01:07:38;;;;;;;1.25;1.05;;;18.70;99.90;;;;;;5048671;28;20401;-48
2022/07/13 01:10:06;;;;;;;1.70;1.20;;;18.70;99.90;;;;;;5048802;28;20543;-48
2022/07/13 01:12:33;;;;;;;4.43;1.45;;;18.60;99.90;;;;;;5048306;28;20025;-50
2022/07/13 01:14:59;;;;;;;1.30;1.15;;;18.60;99.90;;;;;;5048497;28;20021;-55
2022/07/13 01:17:30;;;;;;;1.20;1.10;;;18.60;99.90;;;;;;5049018;28;20021;-50
2022/07/13 01:19:57;;;;;;;1.83;1.30;;;18.60;99.90;;;;;;5048981;28;20515;-50
2022/07/13 01:22:29;;;;;;;1.58;1.48;;;18.60;99.90;;;;;;5048323;28;20120;-53
2022/07/13 01:24:55;;;;;;;1.35;1.23;;;18.60;99.90;;;;;;5046149;28;20648;-53
2022/07/13 01:27:21;;;;;;;1.77;1.20;;;18.60;99.90;;;;;;5048875;28;20219;-48
2022/07/13 01:29:47;;;;;;;1.10;1.10;;;18.60;99.90;;;;;;5047974;28;20104;-50
2022/07/13 01:32:12;;;;;;;1.30;1.08;;;18.60;99.90;;;;;;5048513;28;20467;-49
2022/07/13 01:34:38;;;;;;;1.00;1.00;;;18.60;99.90;;;;;;5030677;28;20033;-49
2022/07/13 01:37:04;;;;;;;1.45;1.35;;;18.50;99.90;;;;;;5049113;28;20532;-56
2022/07/13 01:39:29;;;;;;;1.20;1.10;;;18.50;99.90;;;;;;5049007;28;20032;-52
2022/07/13 01:41:55;;;;;;;1.63;1.35;;;18.60;99.90;;;;;;5048611;28;20415;-49
2022/07/13 01:44:20;;;;;;;1.80;1.30;;;18.50;99.90;;;;;;5048598;28;20071;-48
2022/07/13 01:46:46;;;;;;;1.85;1.00;;;18.50;99.90;;;;;;5048426;28;20526;-50
2022/07/13 01:49:12;;;;;;;1.20;1.08;;;18.50;99.90;;;;;;5048680;28;20017;-52
2022/07/13 01:51:39;;;;;;;1.10;1.00;;;18.50;99.90;;;;;;5047793;28;20036;-53
2022/07/13 01:54:05;;;;;;;1.20;1.15;;;18.50;99.90;;;;;;5048048;28;20082;-53
2022/07/13 01:56:32;;;;;;;1.30;1.20;;;18.50;99.90;;;;;;5048758;28;20036;-50
2022/07/13 01:59:01;;;;;;;1.23;1.10;;;18.50;99.90;;;;;;5048240;28;20025;-48
2022/07/13 02:01:26;;;;;;;1.40;1.30;;;18.50;99.90;;;;;;5051692;28;20031;-51
2022/07/13 02:03:52;;;;;;;1.35;1.25;;;18.50;99.90;;;;;;5052262;28;20029;-53
2022/07/13 02:06:18;;;;;;;2.00;1.10;;;18.40;99.90;;;;;;5052381;28;20021;-55
2022/07/13 02:08:43;;;;;;;1.30;1.10;;;18.50;99.90;;;;;;5052066;28;20047;-48
2022/07/13 02:11:15;;;;;;;1.40;1.30;;;18.40;99.90;;;;;;5052298;28;20079;-50
2022/07/13 02:13:45;;;;;;;2.28;1.30;;;18.40;99.90;;;;;;5052535;28;20037;-52
2022/07/13 02:16:15;;;;;;;1.38;1.23;;;18.40;99.90;;;;;;5051757;28;20460;-48
2022/07/13 02:18:41;;;;;;;0.98;0.90;;;18.40;99.90;;;;;;5052391;28;20036;-52
2022/07/13 02:21:06;;;;;;;1.10;1.00;;;18.40;99.90;;;;;;5052188;28;20028;-54
2022/07/13 02:23:32;;;;;;;1.10;1.05;;;18.40;99.90;;;;;;5048677;28;20037;-52
2022/07/13 02:25:58;;;;;;;1.20;1.10;;;18.40;99.90;;;;;;5051994;28;20025;-54
2022/07/13 02:28:23;;;;;;;1.02;1.02;;;18.40;99.90;;;;;;5047987;28;20029;-51
2022/07/13 02:30:49;;;;;;;1.33;1.13;;;18.40;99.90;;;;;;5050717;28;20024;-55
2022/07/13 02:33:15;;;;;;;1.60;1.35;;;18.30;99.90;;;;;;5051342;28;20024;-54
2022/07/13 02:35:40;;;;;;;1.20;1.08;;;18.30;99.90;;;;;;5051916;28;20090;-53
2022/07/13 02:38:06;;;;;;;1.20;1.10;;;18.30;99.90;;;;;;5033880;28;20070;-52
2022/07/13 02:40:32;;;;;;;1.58;1.30;;;18.30;99.90;;;;;;5051558;28;20033;-49
2022/07/13 02:42:57;;;;;;;1.83;1.30;;;18.30;99.90;;;;;;5051254;28;20487;-51
2022/07/13 02:45:23;;;;;;;1.27;1.17;;;18.40;99.90;;;;;;5050008;28;20160;-51
2022/07/13 02:47:49;;;;;;;1.50;1.40;;;18.30;99.90;;;;;;5052009;28;20506;-51
2022/07/13 02:50:14;;;;;;;2.33;1.38;;;18.40;99.90;;;;;;5051560;28;20017;-54
2022/07/13 02:52:41;;;;;;;1.10;1.05;;;18.30;99.90;;;;;;5051313;28;20039;-52
2022/07/13 02:55:07;;;;;;;1.17;1.00;;;18.30;99.90;;;;;;5051273;28;20025;-52
2022/07/13 02:57:32;;;;;;;1.25;1.05;;;18.30;99.90;;;;;;5051176;28;20035;-52
2022/07/13 02:59:58;;;;;;;1.00;0.95;;;18.30;99.90;;;;;;5051509;28;20035;-53
2022/07/13 03:02:24;;;;;;;1.23;1.13;;;18.30;99.90;;;;;;5050070;28;20104;-54
2022/07/13 03:04:49;;;;;;;1.27;1.23;;;18.30;99.90;;;;;;5051132;28;20108;-53
2022/07/13 03:07:15;;;;;;;1.35;1.25;;;18.40;99.90;;;;;;5051477;28;20036;-48
2022/07/13 03:09:42;;;;;;;2.20;1.40;;;18.30;99.90;;;;;;5050968;28;20036;-50
2022/07/13 03:12:07;;;;;;;1.85;1.38;;;18.30;99.90;;;;;;5050405;28;20039;-51
2022/07/13 03:14:33;;;;;;;1.25;1.15;;;18.30;99.90;;;;;;5050711;28;20116;-50
2022/07/13 03:16:58;;;;;;;1.63;1.15;;;18.30;99.90;;;;;;5051341;28;20029;-51
2022/07/13 03:19:24;;;;;;;1.80;1.15;;;18.30;99.90;;;;;;5033428;28;20028;-53
2022/07/13 03:21:50;;;;;;;1.85;1.23;;;18.30;99.90;;;;;;5050753;28;20785;-50
2022/07/13 03:24:15;;;;;;;1.00;1.00;;;18.30;99.90;;;;;;5051199;28;20087;-49
2022/07/13 03:26:41;;;;;;;1.35;1.20;;;18.30;99.90;;;;;;5050728;28;20066;-51
2022/07/13 03:29:07;;;;;;;1.48;1.38;;;18.30;99.90;;;;;;5050985;28;20024;-52
2022/07/13 03:31:32;;;;;;;1.30;1.15;;;18.30;99.90;;;;;;5051104;28;20105;-48
2022/07/13 03:33:58;;;;;;;2.08;1.50;;;18.30;99.90;;;;;;5031293;28;20025;-48
2022/07/13 03:36:23;;;;;;;1.45;1.20;;;18.30;99.90;;;;;;5050939;28;20395;-51
2022/07/13 03:38:49;;;;;;;1.42;1.33;;;18.30;99.90;;;;;;5050561;28;20060;-51
2022/07/13 03:41:14;;;;;;;1.30;1.20;;;18.40;99.90;;;;;;5050586;28;20028;-50
2022/07/13 03:43:40;;;;;;;1.90;1.70;;;18.40;99.90;;;;;;5050523;28;20021;-49
2022/07/13 03:46:06;;;;;;;1.40;1.30;;;18.30;99.90;;;;;;5051004;28;20025;-49
2022/07/13 03:48:31;;;;;;;1.35;1.20;;;18.30;99.90;;;;;;5032526;28;20052;-51
2022/07/13 03:50:57;;;;;;;1.50;1.40;;;18.30;99.90;;;;;;5050251;28;20368;-51
2022/07/13 03:53:22;;;;;;;1.27;1.17;;;18.30;99.90;;;;;;5050247;28;20075;-53
2022/07/13 03:55:48;;;;;;;1.40;1.17;;;18.30;99.90;;;;;;5050485;28;20029;-48
2022/07/13 03:58:14;;;;;;;1.13;1.02;;;18.40;99.90;;;;;;5042239;28;20032;-53
2022/07/13 04:00:40;;;;;;;0.90;0.90;;;18.40;99.90;;;;;;5050540;28;20053;-49
2022/07/13 04:03:06;;;;;;;1.38;1.27;;;18.40;99.90;;;;;;5050249;28;20099;-50
2022/07/13 04:05:32;;;;;;;1.27;1.17;;;18.40;99.90;;;;;;5050214;28;20509;-55
2022/07/13 04:07:57;;;;;;;1.40;1.30;;;18.40;99.90;;;;;;5050731;28;20029;-50
2022/07/13 04:10:23;;;;;;;2.17;1.20;;;18.40;99.90;;;;;;5050264;28;20024;-49
2022/07/13 04:12:50;;;;;;;1.50;1.40;;;18.50;99.90;;;;;;5031851;28;20025;-50
2022/07/13 04:15:16;;;;;;;1.50;1.40;;;18.50;99.90;;;;;;5041794;28;20028;-50
2022/07/13 04:17:43;;;;;;;1.83;1.17;;;18.50;99.90;;;;;;5049853;28;20100;-50
2022/07/13 04:20:10;;;;;;;2.15;1.40;;;18.50;99.90;;;;;;5049433;28;20035;-51
2022/07/13 04:22:36;;;;;;;1.27;1.15;;;18.60;99.90;;;;;;5048817;28;20029;-50
2022/07/13 04:25:03;;;;;;;2.72;1.50;;;18.60;99.90;;;;;;5031181;28;20082;-50
2022/07/13 04:27:28;;;;;;;1.50;1.00;;;18.60;99.90;;;;;;5049977;28;20395;-54
2022/07/13 04:29:54;;;;;;;1.75;1.35;;;18.70;99.90;;;;;;5049181;28;20104;-51
2022/07/13 04:32:19;;;;;;;1.40;1.30;;;18.60;99.90;;;;;;5049285;28;20207;-51
2022/07/13 04:34:45;;;;;;;1.40;1.30;;;18.70;99.90;;;;;;5049008;28;20021;-53
2022/07/13 04:37:11;;;;;;;2.15;1.30;;;18.70;99.90;;;;;;5049691;28;20044;-54
2022/07/13 04:39:39;;;;;;;1.40;1.30;;;18.70;99.90;;;;;;5049152;28;20090;-50
2022/07/13 04:42:05;;;;;;;1.35;1.25;;;18.80;99.90;;;;;;5049184;28;20017;-58
2022/07/13 04:44:30;;;;;;;2.13;1.48;;;18.80;99.90;;;;;;5049110;28;20421;-51
2022/07/13 04:46:56;;;;;;;1.63;1.35;;;18.90;99.90;;;;;;5049330;28;20032;-50
2022/07/13 04:49:22;;;;;;;1.33;1.23;;;18.90;99.90;;;;;;5043695;28;20611;-50
2022/07/13 04:51:48;;;;;;;2.75;1.42;;;18.90;99.90;;;;;;5048993;28;20017;-51
2022/07/13 04:54:22;;;;;;;1.48;1.38;;;19.00;99.90;;;;;;5048223;28;20207;-53
2022/07/13 04:56:48;;;;;;;1.55;1.25;;;19.00;99.90;;;;;;5049252;28;20028;-51
2022/07/13 04:59:15;;;;;;;1.52;1.42;;;19.00;99.90;;;;;;5040910;28;20032;-50
2022/07/13 05:01:41;;;;;;;3.90;1.40;;;19.10;99.90;;;;;;5049024;28;20025;-49
2022/07/13 05:04:07;;;;;;;1.65;1.50;;;19.10;99.90;;;;;;5048989;28;20044;-49
2022/07/13 05:06:32;;;;;;;1.73;1.52;;;19.10;99.90;;;;;;5049192;28;20029;-49
2022/07/13 05:08:58;;;;;;;2.00;1.60;;;19.20;99.90;;;;;;5048820;28;20017;-51
2022/07/13 05:11:24;;;;;;;2.50;1.40;;;19.20;99.90;;;;;;5048670;28;20087;-51
2022/07/13 05:13:50;;;;;;;1.40;1.30;;;19.30;99.90;;;;;;5048610;28;20475;-55
2022/07/13 05:16:16;;;;;;;1.33;1.23;;;19.30;99.90;;;;;;5049169;28;20029;-51
2022/07/13 05:18:42;;;;;;;2.45;1.50;;;19.30;99.90;;;;;;5048899;28;20029;-57
2022/07/13 05:21:08;;;;;;;1.50;1.38;;;19.40;99.90;;;;;;5049182;28;20033;-51
2022/07/13 05:23:35;;;;;;;2.22;1.42;;;19.40;99.90;;;;;;5048928;28;20028;-48
2022/07/13 05:26:01;;;;;;;1.73;1.33;;;19.40;99.90;;;;;;5030798;28;20020;-54
2022/07/13 05:28:26;;;;;;;1.73;1.40;;;19.50;99.90;;;;;;5048768;28;20033;-50
2022/07/13 05:30:52;;;;;;;1.83;1.58;;;19.50;99.90;;;;;;5048232;28;20074;-53
2022/07/13 05:33:19;;;;;;;1.40;1.30;;;19.50;99.90;;;;;;5047266;28;20630;-50
2022/07/13 05:35:45;;;;;;;1.63;1.52;;;19.60;99.90;;;;;;5048879;28;20029;-51
2022/07/13 05:38:10;;;;;;;1.52;1.42;;;19.60;99.90;;;;;;5048988;28;20025;-54
2022/07/13 05:40:36;;;;;;;1.85;1.58;;;19.70;99.90;;;;;;5048330;28;20048;-52
2022/07/13 05:43:01;;;;;;;1.95;1.85;;;19.70;99.90;;;;;;5047688;28;20061;-49
2022/07/13 05:45:27;;;;;;;3.30;1.60;;;19.70;99.90;;;;;;5048701;28;20032;-51
2022/07/13 05:47:53;;;;;;;1.70;1.50;;;19.70;99.90;;;;;;5048616;28;20029;-53
2022/07/13 05:50:19;;;;;;;2.50;1.40;;;19.70;99.90;;;;;;5048448;28;20135;-55
2022/07/13 05:52:44;;;;;;;1.48;1.38;;;19.80;99.90;;;;;;5048099;28;20494;-50
2022/07/13 05:55:10;;;;;;;1.60;1.50;;;19.80;99.90;;;;;;5030682;28;20048;-52
2022/07/13 05:57:40;;;;;;;2.63;1.23;;;19.90;99.90;;;;;;5048819;28;20071;-50
2022/07/13 06:00:10;;;;;;;3.63;1.90;;;19.90;99.90;;;;;;5048579;28;21671;-52
2022/07/13 06:02:36;;;;;;;1.83;1.70;;;20.00;99.90;;;;;;5048449;28;20032;-50
2022/07/13 06:05:02;;;;;;;2.67;1.73;;;20.00;99.90;;;;;;5048087;28;20033;-51
2022/07/13 06:07:28;;;;;;;2.63;1.70;;;20.10;99.90;;;;;;5048294;28;20033;-52
2022/07/13 06:09:53;;;;;;;1.42;1.33;;;20.10;99.90;;;;;;5030658;28;20044;-50
2022/07/13 06:12:19;;;;;;;2.67;1.60;;;20.20;99.90;;;;;;5048088;28;20029;-48
2022/07/13 06:14:44;;;;;;;1.90;1.73;;;20.30;99.90;;;;;;5047813;28;20029;-50
2022/07/13 06:17:10;;;;;;;1.98;1.60;;;20.40;99.90;;;;;;5048457;28;20059;-50
2022/07/13 06:19:36;;;;;;;2.22;2.00;;;20.40;99.90;;;;;;5047838;28;20029;-48
2022/07/13 06:22:01;;;;;;;1.60;1.50;;;20.40;99.90;;;;;;5047317;28;20021;-50
2022/07/13 06:24:27;;;;;;;2.53;1.80;;;20.60;99.90;;;;;;5047816;28;20520;-51
2022/07/13 06:26:52;;;;;;;2.65;1.45;;;20.70;99.90;;;;;;5047856;28;20024;-49
2022/07/13 06:29:18;;;;;;;2.40;1.70;;;20.70;99.90;;;;;;5047875;28;20717;-53
2022/07/13 06:31:43;;;;;;;3.20;2.00;;;20.70;99.90;;;;;;5043922;28;20056;-48
2022/07/13 06:34:09;;;;;;;2.05;1.95;;;20.80;99.90;;;;;;5029973;28;20017;-51
2022/07/13 06:36:35;;;;;;;3.33;1.90;;;20.90;99.90;;;;;;5048229;28;20048;-51
2022/07/13 06:39:01;;;;;;;2.25;1.63;;;21.00;99.90;;;;;;5048340;28;20029;-55
2022/07/13 06:43:54;;;;;;;1.90;1.80;;;21.20;99.90;;;;;;5026441;28;20041;-54
2022/07/13 06:46:20;;;;;;;1.70;1.60;;;21.30;99.90;;;;;;5029691;28;20021;-51
2022/07/13 06:48:46;;;;;;;2.00;1.80;;;21.40;99.90;;;;;;5033315;28;20033;-55
2022/07/13 06:51:11;;;;;;;2.42;2.22;;;21.50;99.90;;;;;;5031486;28;20019;-57
2022/07/13 06:53:37;;;;;;;1.80;1.70;;;21.60;99.90;;;;;;5031532;28;20045;-56
2022/07/13 06:56:03;;;;;;;2.42;2.22;;;21.70;99.90;;;;;;5013296;28;20033;-52
2022/07/13 06:58:28;;;;;;;2.08;1.85;;;21.70;99.90;;;;;;5033776;28;20123;-53
2022/07/13 07:00:54;;;;;;;3.63;2.50;;;21.80;99.90;;;;;;5032109;28;20550;-55
2022/07/13 07:03:20;;;;;;;2.40;2.20;;;21.80;99.90;;;;;;5034453;28;20045;-55
2022/07/13 07:05:45;;;;;;;2.38;2.05;;;21.80;99.90;;;;;;5031582;28;20495;-54
2022/07/13 07:08:11;;;;;;;4.38;2.58;;;21.80;99.90;;;;;;5031583;28;20021;-54
2022/07/13 07:10:37;;;;;;;2.88;2.17;;;21.80;99.90;;;;;;5013531;28;20017;-55
2022/07/13 07:13:03;;;;;;;2.30;2.10;;;21.70;99.90;;;;;;5031608;28;20099;-51
2022/07/13 07:15:28;;;;;;;2.38;2.17;;;21.80;99.90;;;;;;5013298;28;20488;-52
2022/07/13 07:17:54;;;;;;;2.30;2.10;;;21.80;99.90;;;;;;5031288;28;20101;-55
2022/07/13 07:20:20;;;;;;;3.03;2.60;;;21.80;99.90;;;;;;5031264;28;20053;-55
2022/07/13 07:22:46;;;;;;;5.28;2.75;;;21.80;99.90;;;;;;5030807;28;20026;-53
2022/07/13 07:25:12;;;;;;;3.38;2.80;;;21.80;99.90;;;;;;5030827;28;20014;-57
2022/07/13 07:27:40;;;;;;;2.40;2.20;;;21.80;99.90;;;;;;5031056;28;20029;-53
2022/07/13 07:30:06;;;;;;;2.38;2.17;;;21.80;99.90;;;;;;5031022;28;20016;-55
2022/07/13 07:32:32;;;;;;;3.25;2.95;;;21.70;99.90;;;;;;5030261;28;20070;-55
2022/07/13 07:34:58;;;;;;;2.72;2.50;;;21.70;99.90;;;;;;5030612;28;20414;-51
2022/07/13 07:37:24;;;;;;;3.25;2.60;;;21.70;99.90;;;;;;5031144;28;20026;-52
2022/07/13 07:39:50;;;;;;;2.50;2.22;;;21.60;99.90;;;;;;5030272;28;20049;-54
2022/07/13 07:42:16;;;;;;;2.38;2.17;;;21.70;99.90;;;;;;5029892;28;20044;-54
2022/07/13 07:44:41;;;;;;;2.40;2.10;;;21.60;99.90;;;;;;5026931;28;20075;-51
2022/07/13 07:47:08;;;;;;;3.05;2.30;;;21.70;99.90;;;;;;5030032;28;20060;-52
2022/07/13 07:49:34;;;;;;;3.40;2.22;;;21.70;99.90;;;;;;5030310;28;20024;-51
2022/07/13 07:52:00;;;;;;;3.33;2.90;;;21.70;99.90;;;;;;5012336;28;20025;-49
2022/07/13 07:54:25;;;;;;;2.60;2.22;;;21.70;99.90;;;;;;5030755;28;20056;-50
2022/07/13 07:56:51;;;;;;;3.15;2.60;;;21.80;99.90;;;;;;5029318;28;20029;-53
2022/07/13 07:59:17;;;;;;;3.20;2.65;;;21.80;99.90;;;;;;5012137;28;20025;-53
2022/07/13 08:01:46;;;;;;;2.78;2.47;;;21.90;99.90;;;;;;5029104;28;20108;-54
2022/07/13 08:04:11;;;;;;;6.05;2.80;;;21.90;99.90;;;;;;5029948;28;20037;-53
2022/07/13 08:06:38;;;;;;;3.35;3.05;;;22.00;99.90;;;;;;5012420;28;20480;-52
2022/07/13 08:09:04;;;;;;;4.00;3.00;;;22.10;99.90;;;;;;5029849;28;20060;-55
2022/07/13 08:11:30;;;;;;;2.72;2.42;;;22.10;99.90;;;;;;5029462;28;20095;-56
2022/07/13 08:13:55;;;;;;;3.17;2.45;;;22.10;99.90;;;;;;5029859;28;20021;-54
2022/07/13 08:16:21;;;;;;;3.00;2.80;;;22.20;99.90;;;;;;5012158;28;20057;-55
2022/07/13 08:18:46;;;;;;;4.10;3.00;;;22.30;99.90;;;;;;5030095;28;20022;-56
2022/07/13 08:21:12;;;;;;;3.03;2.72;;;22.30;99.90;;;;;;5029746;28;20036;-56
2022/07/13 08:23:54;;;;;;;4.20;3.22;;;22.40;99.90;;;;;;5029652;28;20125;-56
2022/07/13 08:26:23;;;;;;;4.53;3.80;;;22.40;99.90;;;;;;5027515;28;20021;-56
2022/07/13 08:28:49;;;;;;;3.10;2.58;;;22.40;99.90;;;;;;5029503;28;20044;-56
2022/07/13 08:31:15;;;;;;;3.20;2.53;;;22.40;99.90;;;;;;5011551;28;20021;-54
2022/07/13 08:39:11;;;;;;;2.72;2.47;;;22.50;99.90;;;;;;5028574;28;20091;-52
2022/07/13 08:41:37;;;;;;;2.95;2.72;;;22.50;99.90;;;;;;5028968;28;20025;-55
2022/07/13 08:44:03;;;;;;;3.40;3.10;;;22.60;99.90;;;;;;5028596;28;20034;-55
2022/07/13 08:46:29;;;;;;;2.65;2.17;;;22.70;99.90;;;;;;5029344;28;20029;-54
2022/07/13 08:48:56;;;;;;;3.13;2.88;;;22.70;99.90;;;;;;5029049;28;20029;-57
2022/07/13 08:51:23;;;;;;;3.53;3.22;;;22.80;99.90;;;;;;5029201;28;20032;-51
2022/07/13 08:53:56;;;;;;;2.97;2.40;;;22.80;99.90;;;;;;5028312;28;20063;-53
2022/07/13 08:56:22;;;;;;;3.78;3.47;;;22.80;99.90;;;;;;5022541;28;20079;-55
2022/07/13 08:58:48;;;;;;;2.90;2.60;;;22.90;99.90;;;;;;5029275;28;20584;-54
2022/07/13 09:01:14;;;;;;;6.60;2.85;;;23.00;99.90;;;;;;5029075;28;20025;-53
2022/07/13 09:03:41;;;;;;;4.13;3.17;;;23.10;99.90;;;;;;5011201;28;20084;-52
2022/07/13 09:06:07;;;;;;;6.80;3.45;;;23.20;99.90;;;;;;5029435;28;20022;-56
2022/07/13 09:08:43;;;;;;;4.22;3.83;;;23.30;99.90;;;;;;5027829;28;20028;-51
2022/07/13 09:11:09;;;;;;;6.78;4.30;;;23.30;99.90;;;;;;5029166;28;20022;-58
2022/07/13 09:13:40;;;;;;;4.45;3.30;;;23.40;99.90;;;;;;5028802;28;20033;-52
2022/07/13 09:16:26;;;;;;;5.00;4.15;;;23.50;99.90;;;;;;5029152;28;20511;-51
2022/07/13 09:18:56;;;;;;;4.53;4.13;;;23.70;99.90;;;;;;5028917;28;20037;-53
2022/07/13 09:21:23;;;;;;;3.38;3.13;;;24.00;99.90;;;;;;5028677;28;20033;-50
2022/07/13 09:23:53;;;;;;;4.35;3.95;;;24.20;99.90;;;;;;5011035;28;20131;-53
2022/07/13 09:26:21;;;;;;;3.63;3.25;;;24.50;99.90;;;;;;5026942;28;20060;-53
2022/07/13 09:28:48;;;;;;;4.38;4.07;;;24.60;99.90;;;;;;5028681;28;20025;-54
2022/07/13 09:31:15;;;;;;;5.53;4.07;;;24.80;99.90;;;;;;5024750;28;20033;-52
2022/07/13 09:33:43;;;;;;;16.05;5.32;;;25.10;99.90;;;;;;5010422;28;20449;-52
2022/07/13 09:36:14;;;;;;;8.05;3.92;;;25.30;99.90;;;;;;5028992;28;20033;-53
2022/07/13 09:38:45;;;;;;;6.13;4.30;;;25.50;99.90;;;;;;5027027;28;20033;-50
2022/07/13 09:41:26;;;;;;;5.03;3.55;;;25.50;99.90;;;;;;5010988;28;20029;-55
2022/07/13 09:46:56;;;;;;;4.38;2.85;;;25.60;99.90;;;;;;5028717;28;20558;-53
2022/07/13 09:49:42;;;;;;;4.25;3.03;;;25.70;99.90;;;;;;5025073;28;20030;-50
2022/07/13 09:52:09;;;;;;;;;;;26.00;99.90;;;;;;5028998;28;20040;-52
2022/07/13 09:54:39;;;;;;;3.65;3.35;;;26.10;99.90;;;;;;5027968;28;19909;-56
2022/07/13 09:57:08;;;;;;;2.95;2.65;;;26.10;99.90;;;;;;5028533;28;20061;-55
2022/07/13 09:59:43;;;;;;;4.03;3.08;;;26.20;99.90;;;;;;5028005;28;20029;-55
2022/07/13 10:02:10;;;;;;;4.32;3.72;;;26.30;99.90;;;;;;5028129;28;20083;-52
2022/07/13 10:04:37;;;;;;;3.10;2.90;;;26.40;99.90;;;;;;5027937;28;20041;-54
2022/07/13 10:07:07;;;;;;;4.60;3.38;;;26.50;99.90;;;;;;5027999;28;20050;-54
2022/07/13 10:09:36;;;;;;;4.35;3.00;;;26.60;99.90;;;;;;5028433;28;20108;-55
2022/07/13 10:12:10;;;;;;;9.30;4.25;;;26.80;99.90;;;;;;5027483;28;20080;-51
2022/07/13 10:14:37;;;;;;;5.25;4.53;;;26.80;99.90;;;;;;5028703;28;20067;-56
2022/07/13 10:17:10;;;;;;;4.75;4.30;;;26.90;99.90;;;;;;5027641;28;20507;-50
2022/07/13 10:19:47;;;;;;;4.28;3.00;;;26.90;99.90;;;;;;5011084;28;20092;-56
2022/07/13 10:22:21;;;;;;;5.63;4.10;;;27.00;99.90;;;;;;5013176;28;20029;-51
2022/07/13 10:24:54;;;;;;;4.18;3.55;;;26.90;99.90;;;;;;5032341;28;20021;-54
2022/07/13 10:27:28;;;;;;;4.40;3.97;;;26.90;99.90;;;;;;5024605;28;20025;-55
2022/07/13 10:30:20;;;;;;;6.30;3.35;;;27.00;99.90;;;;;;5031834;28;20117;-57
2022/07/13 10:32:46;;;;;;;5.22;3.50;;;27.00;99.90;;;;;;5022922;28;20127;-53
2022/07/13 10:35:17;;;;;;;3.90;3.60;;;27.00;99.90;;;;;;5032095;28;20104;-54
2022/07/13 10:38:03;;;;;;;4.03;3.33;;;27.00;99.90;;;;;;5032249;28;20030;-51
2022/07/13 10:40:30;;;;;;;5.30;3.78;;;27.00;99.90;;;;;;5030047;28;20033;-54
2022/07/13 10:43:00;;;;;;;6.60;3.47;;;27.00;99.90;;;;;;5031413;28;20037;-55
2022/07/13 10:45:52;;;;;;;3.83;3.38;;;27.00;99.90;;;;;;5030461;28;20022;-52
2022/07/13 10:48:24;;;;;;;3.60;3.30;;;27.00;99.90;;;;;;5031989;28;20018;-54
2022/07/13 10:51:01;;;;;;;6.95;3.90;;;26.90;99.90;;;;;;5035874;28;20021;-54
2022/07/13 10:53:39;;;;;;;5.43;4.38;;;26.90;99.90;;;;;;5031359;28;20022;-55
2022/07/13 10:56:17;;;;;;;4.82;3.63;;;26.90;99.90;;;;;;5030323;28;20034;-55
2022/07/13 10:58:44;;;;;;;5.97;3.80;;;26.90;99.90;;;;;;5036322;28;20037;-55
2022/07/13 11:01:33;;;;;;;4.20;3.80;;;27.00;99.90;;;;;;5038380;28;20364;-57
2022/07/13 11:03:59;;;;;;;6.15;4.20;;;27.00;99.90;;;;;;5030707;28;20117;-57
2022/07/13 11:06:25;;;;;;;4.57;3.25;;;27.10;99.70;;;;;;5015663;28;20021;-57
2022/07/13 11:09:13;;;;;;;4.60;3.83;;;27.00;99.90;;;;;;5034410;28;20075;-57
2022/07/13 11:11:53;;;;;;;4.13;3.72;;;27.10;99.90;;;;;;5025432;28;20025;-56
2022/07/13 11:14:40;;;;;;;10.73;4.25;;;27.00;99.90;;;;;;5012430;28;20091;-54
2022/07/13 11:17:23;;;;;;;4.38;3.45;;;27.00;99.80;;;;;;5031115;28;20171;-53
2022/07/13 11:19:50;;;;;;;4.03;3.17;;;27.00;99.90;;;;;;5034760;28;20639;-55
2022/07/13 11:22:16;;;;;;;4.35;3.95;;;27.10;99.90;;;;;;5030896;28;20087;-54
2022/07/13 11:28:01;;;;;;;5.00;3.95;;;27.10;99.90;;;;;;5030939;28;20672;-55
2022/07/13 11:30:29;;;;;;;5.15;3.78;;;27.20;99.70;;;;;;5030400;28;20029;-57
2022/07/13 11:32:55;;;;;;;6.72;3.50;;;27.20;99.90;;;;;;5034290;28;20021;-54
2022/07/13 11:35:21;;;;;;;3.55;2.88;;;27.30;99.90;;;;;;5031072;28;20430;-57
2022/07/13 11:37:47;;;;;;;4.30;3.50;;;27.30;99.80;;;;;;5034053;28;20041;-54
2022/07/13 11:40:34;;;;;;;3.10;2.88;;;27.40;99.60;;;;;;5027283;28;20075;-54
2022/07/13 11:43:01;;;;;;;3.50;3.17;;;27.50;99.80;;;;;;5033762;28;20427;-55
2022/07/13 11:45:31;;;;;;;3.75;3.47;;;27.40;99.70;;;;;;5029773;28;20044;-56
2022/07/13 11:47:59;;;;;;;29.15;5.32;;;27.50;99.90;;;;;;5034486;28;20076;-50
2022/07/13 11:50:46;;;;;;;3.92;3.40;;;27.50;98.90;;;;;;5030062;28;20025;-53
2022/07/13 11:53:29;;;;;;;5.03;3.10;;;27.40;97.80;;;;;;5029672;28;20095;-56
2022/07/13 11:56:22;;;;;;;3.72;3.30;;;27.30;98.60;;;;;;5012935;28;20096;-55
2022/07/13 11:58:48;;;;;;;5.05;3.08;;;27.40;99.60;;;;;;5027386;28;20199;-52
2022/07/13 12:01:16;;;;;;;22.45;4.90;;;27.50;97.90;;;;;;5029885;28;20021;-56
2022/07/13 12:03:49;;;;;;;3.95;3.00;;;27.40;97.30;;;;;;5030594;28;20472;-53
2022/07/13 12:06:15;;;;;;;4.38;3.28;;;27.50;97.50;;;;;;5022412;28;20115;-55
2022/07/13 12:08:43;;;;;;;4.07;2.67;;;27.50;96.60;;;;;;5019200;28;20026;-53
2022/07/13 12:11:14;;;;;;;4.28;3.15;;;27.40;95.60;;;;;;5028906;28;20036;-56
2022/07/13 12:13:40;;;;;;;7.05;3.63;;;27.40;95.70;;;;;;5030106;28;20452;-57
2022/07/13 12:16:09;;;;;;;7.10;3.53;;;27.40;96.20;;;;;;5029864;28;20079;-55
2022/07/13 12:19:04;;;;;;;5.10;3.53;;;27.30;96.10;;;;;;5030427;28;20037;-50
2022/07/13 12:21:31;;;;;;;4.68;4.18;;;27.10;96.90;;;;;;5023591;28;20037;-54
2022/07/13 12:23:58;;;;;;;4.05;3.60;;;27.10;95.90;;;;;;5029840;28;20607;-53
2022/07/13 12:26:24;;;;;;;5.57;2.80;;;27.10;95.50;;;;;;5029216;28;20037;-54
2022/07/13 12:28:50;;;;;;;6.68;3.13;;;27.10;96.60;;;;;;5029824;28;20021;-57
2022/07/13 12:31:22;;;;;;;4.45;2.90;;;27.30;95.20;;;;;;5029053;28;20164;-53
2022/07/13 12:33:50;;;;;;;3.63;3.28;;;27.40;95.50;;;;;;5029752;28;20033;-53
2022/07/13 12:36:20;;;;;;;4.13;2.58;;;27.50;96.20;;;;;;5026158;28;20037;-53
2022/07/13 12:39:00;;;;;;;3.03;2.72;;;27.50;95.10;;;;;;5029609;28;20071;-55
2022/07/13 12:41:27;;;;;;;3.20;2.30;;;27.60;95.20;;;;;;5092166;22;20041;-53
2022/07/13 12:43:57;;;;;;;5.40;2.70;;;27.50;93.20;;;;;;5053231;28;20142;-49
2022/07/13 12:46:24;;;;;;;3.25;2.00;;;27.30;92.70;;;;;;5046419;28;20491;-48
2022/07/13 12:48:59;;;;;;;3.47;2.80;;;27.40;93.70;;;;;;5052936;28;20028;-54
2022/07/13 12:51:25;;;;;;;2.97;2.75;;;27.60;93.60;;;;;;5048885;28;20029;-50
2022/07/13 12:53:58;;;;;;;2.80;2.60;;;27.80;94.10;;;;;;5059085;28;20041;-56
2022/07/13 12:56:26;;;;;;;7.97;3.35;;;27.80;93.80;;;;;;5046611;28;20021;-55
2022/07/13 12:58:54;;;;;;;2.78;2.40;;;27.80;92.80;;;;;;5057384;28;20025;-54
2022/07/13 13:01:33;;;;;;;4.07;3.67;;;27.70;92.60;;;;;;5051158;28;20487;-54
2022/07/13 13:04:00;;;;;;;3.05;2.78;;;27.50;93.70;;;;;;5055457;28;20075;-53
2022/07/13 13:06:26;;;;;;;2.42;2.22;;;27.30;93.20;;;;;;5032142;28;20704;-54